sensor_id;sensor_type;location;lat;lon;timestamp;P1;durP1;ratioP1;P2;durP2;ratioP2
9409;SDS011;4744;52.576;13.568;2023-07-22T00:00:38;3.50;;;3.30;;
9409;SDS011;4744;52.576;13.568;2023-07-22T00:03:05;4.00;;;3.70;;
9409;SDS011;4744;52.576;13.568;2023-07-22T00:05:32;3.25;;;3.05;;
9409;SDS011;4744;52.576;13.568;2023-07-22T00:08:00;3.30;;;3.10;;
9409;SDS011;4744;52.576;13.568;2023-07-22T00:10:27;3.13;;;2.92;;
9409;SDS011;4744;52.576;13.568;2023-07-22T00:12:54;3.60;;;3.30;;
9409;SDS011;4744;52.576;13.568;2023-07-22T00:15:21;3.20;;;3.00;;
9409;SDS011;4744;52.576;13.568;2023-07-22T00:17:50;3.50;;;3.20;;
9409;SDS011;4744;52.576;13.568;2023-07-22T00:20:17;3.78;;;3.47;;
9409;SDS011;4744;52.576;13.568;2023-07-22T00:22:45;4.05;;;3.75;;
9409;SDS011;4744;52.576;13.568;2023-07-22T00:25:13;4.40;;;4.00;;
9409;SDS011;4744;52.576;13.568;2023-07-22T00:27:40;4.63;;;4.25;;
9409;SDS011;4744;52.576;13.568;2023-07-22T00:30:08;4.70;;;4.40;;
9409;SDS011;4744;52.576;13.568;2023-07-22T00:32:36;4.43;;;4.13;;
9409;SDS011;4744;52.576;13.568;2023-07-22T00:35:03;4.10;;;3.90;;
9409;SDS011;4744;52.576;13.568;2023-07-22T00:37:30;4.30;;;4.00;;
9409;SDS011;4744;52.576;13.568;2023-07-22T00:39:58;4.13;;;3.83;;
9409;SDS011;4744;52.576;13.568;2023-07-22T00:42:27;4.70;;;4.30;;
9409;SDS011;4744;52.576;13.568;2023-07-22T00:44:54;4.22;;;3.92;;
9409;SDS011;4744;52.576;13.568;2023-07-22T00:47:21;5.35;;;4.88;;
9409;SDS011;4744;52.576;13.568;2023-07-22T00:49:48;4.32;;;4.03;;
9409;SDS011;4744;52.576;13.568;2023-07-22T00:52:16;4.40;;;4.10;;
9409;SDS011;4744;52.576;13.568;2023-07-22T00:54:43;4.30;;;4.00;;
9409;SDS011;4744;52.576;13.568;2023-07-22T00:57:11;4.78;;;4.47;;
9409;SDS011;4744;52.576;13.568;2023-07-22T00:59:39;5.10;;;4.70;;
9409;SDS011;4744;52.576;13.568;2023-07-22T01:02:06;5.13;;;4.72;;
9409;SDS011;4744;52.576;13.568;2023-07-22T01:04:34;4.93;;;4.60;;
9409;SDS011;4744;52.576;13.568;2023-07-22T01:07:02;4.35;;;4.05;;
9409;SDS011;4744;52.576;13.568;2023-07-22T01:09:35;4.45;;;4.15;;
9409;SDS011;4744;52.576;13.568;2023-07-22T01:12:03;4.10;;;3.80;;
9409;SDS011;4744;52.576;13.568;2023-07-22T01:14:31;3.83;;;3.55;;
9409;SDS011;4744;52.576;13.568;2023-07-22T01:17:00;3.63;;;3.40;;
9409;SDS011;4744;52.576;13.568;2023-07-22T01:19:28;4.22;;;3.92;;
9409;SDS011;4744;52.576;13.568;2023-07-22T01:21:56;3.72;;;3.47;;
9409;SDS011;4744;52.576;13.568;2023-07-22T01:24:26;4.30;;;4.00;;
9409;SDS011;4744;52.576;13.568;2023-07-22T01:26:54;4.20;;;3.90;;
9409;SDS011;4744;52.576;13.568;2023-07-22T01:29:21;4.22;;;3.83;;
9409;SDS011;4744;52.576;13.568;2023-07-22T01:31:50;5.10;;;4.70;;
9409;SDS011;4744;52.576;13.568;2023-07-22T01:34:18;5.18;;;4.78;;
9409;SDS011;4744;52.576;13.568;2023-07-22T01:36:46;5.00;;;4.60;;
9409;SDS011;4744;52.576;13.568;2023-07-22T01:39:13;5.57;;;5.15;;
9409;SDS011;4744;52.576;13.568;2023-07-22T01:41:42;5.30;;;4.90;;
9409;SDS011;4744;52.576;13.568;2023-07-22T01:44:10;6.10;;;5.60;;
9409;SDS011;4744;52.576;13.568;2023-07-22T01:46:37;5.40;;;5.05;;
9409;SDS011;4744;52.576;13.568;2023-07-22T01:49:04;5.65;;;5.18;;
9409;SDS011;4744;52.576;13.568;2023-07-22T01:51:33;5.38;;;4.88;;
9409;SDS011;4744;52.576;13.568;2023-07-22T01:54:02;5.90;;;5.40;;
9409;SDS011;4744;52.576;13.568;2023-07-22T01:56:29;5.30;;;4.90;;
9409;SDS011;4744;52.576;13.568;2023-07-22T01:58:58;4.80;;;4.50;;
9409;SDS011;4744;52.576;13.568;2023-07-22T02:01:24;5.65;;;5.25;;
9409;SDS011;4744;52.576;13.568;2023-07-22T02:03:53;6.28;;;5.68;;
9409;SDS011;4744;52.576;13.568;2023-07-22T02:06:20;5.15;;;4.75;;
9409;SDS011;4744;52.576;13.568;2023-07-22T02:08:47;5.53;;;5.13;;
9409;SDS011;4744;52.576;13.568;2023-07-22T02:11:14;5.20;;;4.80;;
9409;SDS011;4744;52.576;13.568;2023-07-22T02:13:41;5.32;;;4.93;;
9409;SDS011;4744;52.576;13.568;2023-07-22T02:16:09;5.05;;;4.65;;
9409;SDS011;4744;52.576;13.568;2023-07-22T02:18:37;4.90;;;4.47;;
9409;SDS011;4744;52.576;13.568;2023-07-22T02:21:04;5.53;;;5.13;;
9409;SDS011;4744;52.576;13.568;2023-07-22T02:23:31;6.05;;;5.50;;
9409;SDS011;4744;52.576;13.568;2023-07-22T02:25:58;5.93;;;5.40;;
9409;SDS011;4744;52.576;13.568;2023-07-22T02:28:25;5.88;;;5.38;;
9409;SDS011;4744;52.576;13.568;2023-07-22T02:30:52;5.55;;;5.13;;
9409;SDS011;4744;52.576;13.568;2023-07-22T02:33:21;5.22;;;4.78;;
9409;SDS011;4744;52.576;13.568;2023-07-22T02:35:48;5.38;;;4.90;;
9409;SDS011;4744;52.576;13.568;2023-07-22T02:38:15;6.38;;;5.82;;
9409;SDS011;4744;52.576;13.568;2023-07-22T02:40:43;5.38;;;5.07;;
9409;SDS011;4744;52.576;13.568;2023-07-22T02:43:09;5.80;;;5.30;;
9409;SDS011;4744;52.576;13.568;2023-07-22T02:45:36;6.07;;;5.40;;
9409;SDS011;4744;52.576;13.568;2023-07-22T02:48:04;5.57;;;4.85;;
9409;SDS011;4744;52.576;13.568;2023-07-22T02:50:32;5.55;;;5.05;;
9409;SDS011;4744;52.576;13.568;2023-07-22T02:52:59;5.82;;;5.43;;
9409;SDS011;4744;52.576;13.568;2023-07-22T02:55:26;4.97;;;4.68;;
9409;SDS011;4744;52.576;13.568;2023-07-22T02:57:53;6.45;;;5.80;;
9409;SDS011;4744;52.576;13.568;2023-07-22T03:00:20;6.07;;;5.47;;
9409;SDS011;4744;52.576;13.568;2023-07-22T03:02:49;5.68;;;5.13;;
9409;SDS011;4744;52.576;13.568;2023-07-22T03:05:17;5.10;;;4.70;;
9409;SDS011;4744;52.576;13.568;2023-07-22T03:07:46;4.82;;;4.53;;
9409;SDS011;4744;52.576;13.568;2023-07-22T03:10:13;5.32;;;4.93;;
9409;SDS011;4744;52.576;13.568;2023-07-22T03:12:40;5.50;;;5.10;;
9409;SDS011;4744;52.576;13.568;2023-07-22T03:15:07;5.47;;;4.95;;
9409;SDS011;4744;52.576;13.568;2023-07-22T03:17:34;4.93;;;4.53;;
9409;SDS011;4744;52.576;13.568;2023-07-22T03:20:01;4.75;;;4.43;;
9409;SDS011;4744;52.576;13.568;2023-07-22T03:22:36;5.30;;;4.80;;
9409;SDS011;4744;52.576;13.568;2023-07-22T03:25:05;4.70;;;4.30;;
9409;SDS011;4744;52.576;13.568;2023-07-22T03:27:35;4.35;;;4.05;;
9409;SDS011;4744;52.576;13.568;2023-07-22T03:30:03;4.68;;;4.28;;
9409;SDS011;4744;52.576;13.568;2023-07-22T03:32:31;4.55;;;4.10;;
9409;SDS011;4744;52.576;13.568;2023-07-22T03:34:58;4.25;;;3.95;;
9409;SDS011;4744;52.576;13.568;2023-07-22T03:37:26;4.63;;;4.22;;
9409;SDS011;4744;52.576;13.568;2023-07-22T03:39:53;4.13;;;3.83;;
9409;SDS011;4744;52.576;13.568;2023-07-22T03:42:21;3.83;;;3.63;;
9409;SDS011;4744;52.576;13.568;2023-07-22T03:44:48;3.70;;;3.40;;
9409;SDS011;4744;52.576;13.568;2023-07-22T03:47:16;4.95;;;4.30;;
9409;SDS011;4744;52.576;13.568;2023-07-22T03:49:43;4.05;;;3.75;;
9409;SDS011;4744;52.576;13.568;2023-07-22T03:52:10;3.90;;;3.60;;
9409;SDS011;4744;52.576;13.568;2023-07-22T03:54:39;3.80;;;3.60;;
9409;SDS011;4744;52.576;13.568;2023-07-22T03:57:06;5.30;;;4.13;;
9409;SDS011;4744;52.576;13.568;2023-07-22T03:59:34;4.07;;;3.78;;
9409;SDS011;4744;52.576;13.568;2023-07-22T04:02:01;5.45;;;4.25;;
9409;SDS011;4744;52.576;13.568;2023-07-22T04:04:28;4.50;;;4.18;;
9409;SDS011;4744;52.576;13.568;2023-07-22T04:06:55;4.05;;;3.70;;
9409;SDS011;4744;52.576;13.568;2023-07-22T04:09:22;4.80;;;4.10;;
9409;SDS011;4744;52.576;13.568;2023-07-22T04:11:49;4.35;;;3.95;;
9409;SDS011;4744;52.576;13.568;2023-07-22T04:14:16;3.63;;;3.42;;
9409;SDS011;4744;52.576;13.568;2023-07-22T04:16:44;5.25;;;3.70;;
9409;SDS011;4744;52.576;13.568;2023-07-22T04:19:11;3.63;;;3.42;;
9409;SDS011;4744;52.576;13.568;2023-07-22T04:21:38;3.60;;;3.30;;
9409;SDS011;4744;52.576;13.568;2023-07-22T04:24:05;3.67;;;3.38;;
9409;SDS011;4744;52.576;13.568;2023-07-22T04:26:32;3.85;;;3.53;;
9409;SDS011;4744;52.576;13.568;2023-07-22T04:28:59;3.80;;;3.60;;
9409;SDS011;4744;52.576;13.568;2023-07-22T04:31:26;3.95;;;3.60;;
9409;SDS011;4744;52.576;13.568;2023-07-22T04:33:54;3.13;;;2.92;;
9409;SDS011;4744;52.576;13.568;2023-07-22T04:36:23;4.20;;;3.80;;
9409;SDS011;4744;52.576;13.568;2023-07-22T04:38:50;3.80;;;3.50;;
9409;SDS011;4744;52.576;13.568;2023-07-22T04:41:17;4.28;;;3.92;;
9409;SDS011;4744;52.576;13.568;2023-07-22T04:43:44;3.42;;;3.22;;
9409;SDS011;4744;52.576;13.568;2023-07-22T04:46:12;4.38;;;4.07;;
9409;SDS011;4744;52.576;13.568;2023-07-22T04:48:40;3.88;;;3.58;;
9409;SDS011;4744;52.576;13.568;2023-07-22T04:51:08;4.05;;;3.65;;
9409;SDS011;4744;52.576;13.568;2023-07-22T04:53:35;4.78;;;4.38;;
9409;SDS011;4744;52.576;13.568;2023-07-22T04:56:02;5.72;;;4.10;;
9409;SDS011;4744;52.576;13.568;2023-07-22T04:58:29;4.63;;;4.20;;
9409;SDS011;4744;52.576;13.568;2023-07-22T05:00:57;4.57;;;4.13;;
9409;SDS011;4744;52.576;13.568;2023-07-22T05:03:24;5.18;;;4.68;;
9409;SDS011;4744;52.576;13.568;2023-07-22T05:05:51;5.40;;;5.00;;
9409;SDS011;4744;52.576;13.568;2023-07-22T05:08:19;4.90;;;4.47;;
9409;SDS011;4744;52.576;13.568;2023-07-22T05:10:46;4.40;;;4.07;;
9409;SDS011;4744;52.576;13.568;2023-07-22T05:13:13;7.00;;;5.15;;
9409;SDS011;4744;52.576;13.568;2023-07-22T05:15:41;5.15;;;4.75;;
9409;SDS011;4744;52.576;13.568;2023-07-22T05:18:08;4.45;;;4.03;;
9409;SDS011;4744;52.576;13.568;2023-07-22T05:20:35;4.65;;;4.13;;
9409;SDS011;4744;52.576;13.568;2023-07-22T05:23:04;5.00;;;4.43;;
9409;SDS011;4744;52.576;13.568;2023-07-22T05:25:32;5.25;;;4.82;;
9409;SDS011;4744;52.576;13.568;2023-07-22T05:27:59;5.25;;;4.40;;
9409;SDS011;4744;52.576;13.568;2023-07-22T05:30:26;4.95;;;4.50;;
9409;SDS011;4744;52.576;13.568;2023-07-22T05:32:53;4.93;;;4.43;;
9409;SDS011;4744;52.576;13.568;2023-07-22T05:35:20;4.50;;;4.20;;
9409;SDS011;4744;52.576;13.568;2023-07-22T05:37:46;5.00;;;4.57;;
9409;SDS011;4744;52.576;13.568;2023-07-22T05:40:13;5.47;;;4.85;;
9409;SDS011;4744;52.576;13.568;2023-07-22T05:42:42;6.90;;;5.57;;
9409;SDS011;4744;52.576;13.568;2023-07-22T05:45:09;5.78;;;5.25;;
9409;SDS011;4744;52.576;13.568;2023-07-22T05:47:38;7.45;;;5.57;;
9409;SDS011;4744;52.576;13.568;2023-07-22T05:50:06;6.00;;;5.47;;
9409;SDS011;4744;52.576;13.568;2023-07-22T05:52:33;5.50;;;5.00;;
9409;SDS011;4744;52.576;13.568;2023-07-22T05:55:00;7.10;;;6.32;;
9409;SDS011;4744;52.576;13.568;2023-07-22T05:57:27;7.20;;;5.28;;
9409;SDS011;4744;52.576;13.568;2023-07-22T05:59:55;6.30;;;5.70;;
9409;SDS011;4744;52.576;13.568;2023-07-22T06:02:22;7.13;;;5.60;;
9409;SDS011;4744;52.576;13.568;2023-07-22T06:04:49;7.03;;;5.50;;
9409;SDS011;4744;52.576;13.568;2023-07-22T06:07:16;9.02;;;6.05;;
9409;SDS011;4744;52.576;13.568;2023-07-22T06:09:43;6.65;;;5.80;;
9409;SDS011;4744;52.576;13.568;2023-07-22T06:12:10;6.65;;;5.90;;
9409;SDS011;4744;52.576;13.568;2023-07-22T06:14:38;7.32;;;6.28;;
9409;SDS011;4744;52.576;13.568;2023-07-22T06:17:06;6.32;;;5.72;;
9409;SDS011;4744;52.576;13.568;2023-07-22T06:19:33;6.35;;;5.75;;
9409;SDS011;4744;52.576;13.568;2023-07-22T06:22:00;6.50;;;5.80;;
9409;SDS011;4744;52.576;13.568;2023-07-22T06:24:27;6.53;;;5.65;;
9409;SDS011;4744;52.576;13.568;2023-07-22T06:26:53;6.07;;;5.35;;
9409;SDS011;4744;52.576;13.568;2023-07-22T06:29:20;6.20;;;5.70;;
9409;SDS011;4744;52.576;13.568;2023-07-22T06:31:46;6.30;;;5.70;;
9409;SDS011;4744;52.576;13.568;2023-07-22T06:34:15;6.60;;;6.00;;
9409;SDS011;4744;52.576;13.568;2023-07-22T06:36:42;6.55;;;5.88;;
9409;SDS011;4744;52.576;13.568;2023-07-22T06:39:08;6.20;;;5.70;;
9409;SDS011;4744;52.576;13.568;2023-07-22T06:41:35;6.35;;;5.75;;
9409;SDS011;4744;52.576;13.568;2023-07-22T06:44:02;6.60;;;5.28;;
9409;SDS011;4744;52.576;13.568;2023-07-22T06:46:30;5.55;;;5.05;;
9409;SDS011;4744;52.576;13.568;2023-07-22T06:48:57;7.35;;;5.47;;
9409;SDS011;4744;52.576;13.568;2023-07-22T06:51:25;7.25;;;5.35;;
9409;SDS011;4744;52.576;13.568;2023-07-22T06:53:52;5.00;;;4.60;;
9409;SDS011;4744;52.576;13.568;2023-07-22T06:56:19;5.40;;;4.90;;
9409;SDS011;4744;52.576;13.568;2023-07-22T06:58:46;6.07;;;5.47;;
9409;SDS011;4744;52.576;13.568;2023-07-22T07:01:13;5.82;;;4.90;;
9409;SDS011;4744;52.576;13.568;2023-07-22T07:03:40;4.72;;;4.28;;
9409;SDS011;4744;52.576;13.568;2023-07-22T07:06:06;6.00;;;5.00;;
9409;SDS011;4744;52.576;13.568;2023-07-22T07:08:35;4.97;;;4.30;;
9409;SDS011;4744;52.576;13.568;2023-07-22T07:11:02;9.68;;;5.18;;
9409;SDS011;4744;52.576;13.568;2023-07-22T07:13:29;8.63;;;5.32;;
9409;SDS011;4744;52.576;13.568;2023-07-22T07:15:56;5.70;;;4.82;;
9409;SDS011;4744;52.576;13.568;2023-07-22T07:18:43;5.38;;;4.38;;
9409;SDS011;4744;52.576;13.568;2023-07-22T07:21:10;6.00;;;4.70;;
9409;SDS011;4744;52.576;13.568;2023-07-22T07:23:38;6.20;;;4.35;;
9409;SDS011;4744;52.576;13.568;2023-07-22T07:26:05;4.25;;;3.85;;
9409;SDS011;4744;52.576;13.568;2023-07-22T07:28:32;5.20;;;3.78;;
9409;SDS011;4744;52.576;13.568;2023-07-22T07:30:59;5.03;;;3.40;;
9409;SDS011;4744;52.576;13.568;2023-07-22T07:33:26;3.90;;;3.53;;
9409;SDS011;4744;52.576;13.568;2023-07-22T07:35:52;5.75;;;3.67;;
9409;SDS011;4744;52.576;13.568;2023-07-22T07:38:19;5.25;;;3.92;;
9409;SDS011;4744;52.576;13.568;2023-07-22T07:40:50;4.53;;;3.40;;
9409;SDS011;4744;52.576;13.568;2023-07-22T07:43:18;6.78;;;3.85;;
9409;SDS011;4744;52.576;13.568;2023-07-22T07:45:45;3.67;;;3.20;;
9409;SDS011;4744;52.576;13.568;2023-07-22T07:48:12;4.18;;;3.80;;
9409;SDS011;4744;52.576;13.568;2023-07-22T07:50:39;4.57;;;3.33;;
9409;SDS011;4744;52.576;13.568;2023-07-22T07:53:05;5.75;;;3.55;;
9409;SDS011;4744;52.576;13.568;2023-07-22T07:55:32;4.43;;;3.42;;
9409;SDS011;4744;52.576;13.568;2023-07-22T07:58:01;4.43;;;3.80;;
9409;SDS011;4744;52.576;13.568;2023-07-22T08:00:27;5.55;;;3.90;;
9409;SDS011;4744;52.576;13.568;2023-07-22T08:02:54;4.38;;;3.78;;
9409;SDS011;4744;52.576;13.568;2023-07-22T08:05:21;3.78;;;3.42;;
9409;SDS011;4744;52.576;13.568;2023-07-22T08:07:48;3.78;;;3.35;;
9409;SDS011;4744;52.576;13.568;2023-07-22T08:10:15;4.38;;;3.97;;
9409;SDS011;4744;52.576;13.568;2023-07-22T08:12:43;4.95;;;3.97;;
9409;SDS011;4744;52.576;13.568;2023-07-22T08:15:11;4.25;;;3.80;;
9409;SDS011;4744;52.576;13.568;2023-07-22T08:17:38;4.28;;;3.85;;
9409;SDS011;4744;52.576;13.568;2023-07-22T08:20:05;6.65;;;3.83;;
9409;SDS011;4744;52.576;13.568;2023-07-22T08:22:33;6.07;;;4.10;;
9409;SDS011;4744;52.576;13.568;2023-07-22T08:25:02;3.97;;;3.65;;
9409;SDS011;4744;52.576;13.568;2023-07-22T08:27:30;7.03;;;3.95;;
9409;SDS011;4744;52.576;13.568;2023-07-22T08:29:56;3.88;;;3.47;;
9409;SDS011;4744;52.576;13.568;2023-07-22T08:32:25;4.22;;;3.70;;
9409;SDS011;4744;52.576;13.568;2023-07-22T08:34:52;6.55;;;3.85;;
9409;SDS011;4744;52.576;13.568;2023-07-22T08:37:18;4.18;;;3.78;;
9409;SDS011;4744;52.576;13.568;2023-07-22T08:39:45;5.55;;;4.10;;
9409;SDS011;4744;52.576;13.568;2023-07-22T08:42:12;4.35;;;3.80;;
9409;SDS011;4744;52.576;13.568;2023-07-22T08:44:42;3.85;;;3.55;;
9409;SDS011;4744;52.576;13.568;2023-07-22T08:47:13;5.22;;;3.95;;
9409;SDS011;4744;52.576;13.568;2023-07-22T08:49:45;3.75;;;3.45;;
9409;SDS011;4744;52.576;13.568;2023-07-22T08:52:16;5.10;;;4.15;;
9409;SDS011;4744;52.576;13.568;2023-07-22T08:54:44;4.25;;;3.85;;
9409;SDS011;4744;52.576;13.568;2023-07-22T08:57:11;5.47;;;3.50;;
9409;SDS011;4744;52.576;13.568;2023-07-22T08:59:39;4.70;;;3.83;;
9409;SDS011;4744;52.576;13.568;2023-07-22T09:02:08;4.25;;;3.88;;
9409;SDS011;4744;52.576;13.568;2023-07-22T09:04:39;4.75;;;4.25;;
9409;SDS011;4744;52.576;13.568;2023-07-22T09:07:09;4.05;;;3.65;;
9409;SDS011;4744;52.576;13.568;2023-07-22T09:09:38;4.50;;;3.80;;
9409;SDS011;4744;52.576;13.568;2023-07-22T09:12:06;4.88;;;4.15;;
9409;SDS011;4744;52.576;13.568;2023-07-22T09:14:34;4.75;;;3.88;;
9409;SDS011;4744;52.576;13.568;2023-07-22T09:17:07;3.88;;;3.28;;
9409;SDS011;4744;52.576;13.568;2023-07-22T09:19:35;4.10;;;3.72;;
9409;SDS011;4744;52.576;13.568;2023-07-22T09:22:02;5.15;;;3.67;;
9409;SDS011;4744;52.576;13.568;2023-07-22T09:24:32;3.70;;;3.40;;
9409;SDS011;4744;52.576;13.568;2023-07-22T09:26:59;4.22;;;3.58;;
9409;SDS011;4744;52.576;13.568;2023-07-22T09:29:33;3.72;;;3.42;;
9409;SDS011;4744;52.576;13.568;2023-07-22T09:32:00;4.15;;;3.38;;
9409;SDS011;4744;52.576;13.568;2023-07-22T09:34:28;4.70;;;3.75;;
9409;SDS011;4744;52.576;13.568;2023-07-22T09:36:56;4.30;;;3.53;;
9409;SDS011;4744;52.576;13.568;2023-07-22T09:39:25;3.85;;;3.38;;
9409;SDS011;4744;52.576;13.568;2023-07-22T09:41:54;3.58;;;3.28;;
9409;SDS011;4744;52.576;13.568;2023-07-22T09:44:21;4.15;;;3.40;;
9409;SDS011;4744;52.576;13.568;2023-07-22T09:46:48;4.20;;;3.47;;
9409;SDS011;4744;52.576;13.568;2023-07-22T09:49:16;3.85;;;3.53;;
9409;SDS011;4744;52.576;13.568;2023-07-22T09:51:44;3.20;;;2.90;;
9409;SDS011;4744;52.576;13.568;2023-07-22T09:54:11;3.35;;;3.13;;
9409;SDS011;4744;52.576;13.568;2023-07-22T09:56:44;4.15;;;3.05;;
9409;SDS011;4744;52.576;13.568;2023-07-22T09:59:13;3.72;;;3.15;;
9409;SDS011;4744;52.576;13.568;2023-07-22T10:01:41;3.92;;;3.15;;
9409;SDS011;4744;52.576;13.568;2023-07-22T10:04:12;4.75;;;3.45;;
9409;SDS011;4744;52.576;13.568;2023-07-22T10:06:41;2.90;;;2.70;;
9409;SDS011;4744;52.576;13.568;2023-07-22T10:09:10;2.80;;;2.60;;
9409;SDS011;4744;52.576;13.568;2023-07-22T10:11:38;5.28;;;2.97;;
9409;SDS011;4744;52.576;13.568;2023-07-22T10:14:06;3.63;;;2.90;;
9409;SDS011;4744;52.576;13.568;2023-07-22T10:16:34;2.45;;;2.25;;
9409;SDS011;4744;52.576;13.568;2023-07-22T10:19:03;3.67;;;2.30;;
9409;SDS011;4744;52.576;13.568;2023-07-22T10:21:31;2.83;;;2.53;;
9409;SDS011;4744;52.576;13.568;2023-07-22T10:24:01;2.67;;;2.00;;
9409;SDS011;4744;52.576;13.568;2023-07-22T10:26:28;2.95;;;2.70;;
9409;SDS011;4744;52.576;13.568;2023-07-22T10:28:55;2.85;;;2.03;;
9409;SDS011;4744;52.576;13.568;2023-07-22T10:31:24;2.03;;;1.92;;
9409;SDS011;4744;52.576;13.568;2023-07-22T10:33:52;2.88;;;2.20;;
9409;SDS011;4744;52.576;13.568;2023-07-22T10:36:19;3.58;;;2.15;;
9409;SDS011;4744;52.576;13.568;2023-07-22T10:38:54;2.28;;;2.08;;
9409;SDS011;4744;52.576;13.568;2023-07-22T10:41:22;2.63;;;2.15;;
9409;SDS011;4744;52.576;13.568;2023-07-22T10:43:53;2.47;;;2.30;;
9409;SDS011;4744;52.576;13.568;2023-07-22T10:46:30;2.20;;;2.00;;
9409;SDS011;4744;52.576;13.568;2023-07-22T10:49:08;2.28;;;2.17;;
9409;SDS011;4744;52.576;13.568;2023-07-22T10:51:37;2.10;;;2.00;;
9409;SDS011;4744;52.576;13.568;2023-07-22T10:54:10;2.13;;;2.00;;
9409;SDS011;4744;52.576;13.568;2023-07-22T10:56:37;2.10;;;2.00;;
9409;SDS011;4744;52.576;13.568;2023-07-22T10:59:04;2.55;;;2.30;;
9409;SDS011;4744;52.576;13.568;2023-07-22T11:01:35;2.78;;;2.50;;
9409;SDS011;4744;52.576;13.568;2023-07-22T11:04:05;2.17;;;2.08;;
9409;SDS011;4744;52.576;13.568;2023-07-22T11:06:38;2.20;;;2.10;;
9409;SDS011;4744;52.576;13.568;2023-07-22T11:12:03;2.58;;;2.38;;
9409;SDS011;4744;52.576;13.568;2023-07-22T11:14:31;4.10;;;2.53;;
9409;SDS011;4744;52.576;13.568;2023-07-22T11:16:59;3.40;;;2.38;;
9409;SDS011;4744;52.576;13.568;2023-07-22T11:19:30;2.60;;;2.40;;
9409;SDS011;4744;52.576;13.568;2023-07-22T11:21:58;2.67;;;2.47;;
9409;SDS011;4744;52.576;13.568;2023-07-22T11:24:25;2.70;;;2.50;;
9409;SDS011;4744;52.576;13.568;2023-07-22T11:26:53;2.65;;;2.50;;
9409;SDS011;4744;52.576;13.568;2023-07-22T11:29:21;4.32;;;2.60;;
9409;SDS011;4744;52.576;13.568;2023-07-22T11:31:48;2.95;;;2.75;;
9409;SDS011;4744;52.576;13.568;2023-07-22T11:34:17;2.88;;;2.67;;
9409;SDS011;4744;52.576;13.568;2023-07-22T11:36:46;2.47;;;2.38;;
9409;SDS011;4744;52.576;13.568;2023-07-22T11:39:15;2.65;;;2.45;;
9409;SDS011;4744;52.576;13.568;2023-07-22T11:41:43;3.78;;;2.83;;
9409;SDS011;4744;52.576;13.568;2023-07-22T11:44:12;2.80;;;2.60;;
9409;SDS011;4744;52.576;13.568;2023-07-22T11:49:26;4.75;;;2.80;;
9409;SDS011;4744;52.576;13.568;2023-07-22T11:51:57;2.65;;;2.45;;
9409;SDS011;4744;52.576;13.568;2023-07-22T11:54:25;3.22;;;2.45;;
9409;SDS011;4744;52.576;13.568;2023-07-22T11:56:53;2.80;;;2.60;;
9409;SDS011;4744;52.576;13.568;2023-07-22T11:59:34;3.33;;;2.70;;
9409;SDS011;4744;52.576;13.568;2023-07-22T12:02:04;2.85;;;2.65;;
9409;SDS011;4744;52.576;13.568;2023-07-22T12:04:32;4.68;;;2.90;;
9409;SDS011;4744;52.576;13.568;2023-07-22T12:07:01;3.13;;;2.92;;
9409;SDS011;4744;52.576;13.568;2023-07-22T12:09:30;2.92;;;2.72;;
9409;SDS011;4744;52.576;13.568;2023-07-22T12:11:57;3.28;;;2.97;;
9409;SDS011;4744;52.576;13.568;2023-07-22T12:14:32;3.17;;;2.88;;
9409;SDS011;4744;52.576;13.568;2023-07-22T12:17:00;3.25;;;3.00;;
9409;SDS011;4744;52.576;13.568;2023-07-22T12:19:27;3.60;;;3.30;;
9409;SDS011;4744;52.576;13.568;2023-07-22T12:21:55;3.35;;;3.03;;
9409;SDS011;4744;52.576;13.568;2023-07-22T12:24:23;3.63;;;3.33;;
9409;SDS011;4744;52.576;13.568;2023-07-22T12:26:50;3.58;;;3.28;;
9409;SDS011;4744;52.576;13.568;2023-07-22T12:29:17;2.92;;;2.70;;
9409;SDS011;4744;52.576;13.568;2023-07-22T12:31:44;3.35;;;3.05;;
9409;SDS011;4744;52.576;13.568;2023-07-22T12:34:11;3.40;;;3.10;;
9409;SDS011;4744;52.576;13.568;2023-07-22T12:36:39;3.53;;;3.22;;
9409;SDS011;4744;52.576;13.568;2023-07-22T12:39:06;3.40;;;3.10;;
9409;SDS011;4744;52.576;13.568;2023-07-22T12:41:35;4.05;;;3.05;;
9409;SDS011;4744;52.576;13.568;2023-07-22T12:44:02;4.32;;;3.13;;
9409;SDS011;4744;52.576;13.568;2023-07-22T12:46:29;2.85;;;2.65;;
9409;SDS011;4744;52.576;13.568;2023-07-22T12:48:56;3.90;;;2.97;;
9409;SDS011;4744;52.576;13.568;2023-07-22T12:51:23;3.72;;;3.28;;
9409;SDS011;4744;52.576;13.568;2023-07-22T12:53:50;3.63;;;3.28;;
9409;SDS011;4744;52.576;13.568;2023-07-22T12:56:17;3.40;;;3.10;;
9409;SDS011;4744;52.576;13.568;2023-07-22T12:58:45;3.35;;;2.90;;
9409;SDS011;4744;52.576;13.568;2023-07-22T13:01:12;3.70;;;3.40;;
9409;SDS011;4744;52.576;13.568;2023-07-22T13:03:39;3.20;;;3.00;;
9409;SDS011;4744;52.576;13.568;2023-07-22T13:06:06;3.30;;;3.10;;
9409;SDS011;4744;52.576;13.568;2023-07-22T13:08:33;3.70;;;3.40;;
9409;SDS011;4744;52.576;13.568;2023-07-22T13:11:00;4.30;;;3.60;;
9409;SDS011;4744;52.576;13.568;2023-07-22T13:13:27;3.30;;;3.10;;
9409;SDS011;4744;52.576;13.568;2023-07-22T13:15:55;4.53;;;3.40;;
9409;SDS011;4744;52.576;13.568;2023-07-22T13:18:22;3.55;;;3.25;;
9409;SDS011;4744;52.576;13.568;2023-07-22T13:20:49;3.60;;;3.30;;
9409;SDS011;4744;52.576;13.568;2023-07-22T13:23:16;3.60;;;3.35;;
9409;SDS011;4744;52.576;13.568;2023-07-22T13:25:43;3.08;;;2.88;;
9409;SDS011;4744;52.576;13.568;2023-07-22T13:28:09;3.95;;;3.65;;
9409;SDS011;4744;52.576;13.568;2023-07-22T13:30:36;4.70;;;3.50;;
9409;SDS011;4744;52.576;13.568;2023-07-22T13:33:05;3.45;;;3.15;;
9409;SDS011;4744;52.576;13.568;2023-07-22T13:35:32;4.90;;;3.65;;
9409;SDS011;4744;52.576;13.568;2023-07-22T13:37:59;3.80;;;3.38;;
9409;SDS011;4744;52.576;13.568;2023-07-22T13:40:25;3.50;;;3.20;;
9409;SDS011;4744;52.576;13.568;2023-07-22T13:42:52;3.70;;;3.40;;
9409;SDS011;4744;52.576;13.568;2023-07-22T13:45:19;4.00;;;3.60;;
9409;SDS011;4744;52.576;13.568;2023-07-22T13:47:46;3.75;;;3.35;;
9409;SDS011;4744;52.576;13.568;2023-07-22T13:50:14;3.92;;;3.63;;
9409;SDS011;4744;52.576;13.568;2023-07-22T13:52:41;3.70;;;3.40;;
9409;SDS011;4744;52.576;13.568;2023-07-22T13:55:08;3.63;;;3.30;;
9409;SDS011;4744;52.576;13.568;2023-07-22T13:57:35;3.13;;;2.92;;
9409;SDS011;4744;52.576;13.568;2023-07-22T14:00:02;4.15;;;3.38;;
9409;SDS011;4744;52.576;13.568;2023-07-22T14:02:33;3.53;;;3.22;;
9409;SDS011;4744;52.576;13.568;2023-07-22T14:05:00;3.72;;;3.42;;
9409;SDS011;4744;52.576;13.568;2023-07-22T14:07:28;3.47;;;3.17;;
9409;SDS011;4744;52.576;13.568;2023-07-22T14:09:55;3.38;;;3.17;;
9409;SDS011;4744;52.576;13.568;2023-07-22T14:12:22;3.35;;;3.05;;
9409;SDS011;4744;52.576;13.568;2023-07-22T14:14:49;3.42;;;3.08;;
9409;SDS011;4744;52.576;13.568;2023-07-22T14:17:16;3.65;;;2.90;;
9409;SDS011;4744;52.576;13.568;2023-07-22T14:19:43;3.83;;;3.10;;
9409;SDS011;4744;52.576;13.568;2023-07-22T14:22:10;4.43;;;3.55;;
9409;SDS011;4744;52.576;13.568;2023-07-22T14:24:38;3.70;;;3.30;;
9409;SDS011;4744;52.576;13.568;2023-07-22T14:27:05;3.70;;;3.40;;
9409;SDS011;4744;52.576;13.568;2023-07-22T14:29:33;4.15;;;3.55;;
9409;SDS011;4744;52.576;13.568;2023-07-22T14:31:59;3.78;;;3.38;;
9409;SDS011;4744;52.576;13.568;2023-07-22T14:34:26;3.42;;;3.22;;
9409;SDS011;4744;52.576;13.568;2023-07-22T14:36:53;3.40;;;3.10;;
9409;SDS011;4744;52.576;13.568;2023-07-22T14:39:20;3.70;;;3.38;;
9409;SDS011;4744;52.576;13.568;2023-07-22T14:41:48;3.47;;;3.28;;
9409;SDS011;4744;52.576;13.568;2023-07-22T14:44:16;4.20;;;3.50;;
9409;SDS011;4744;52.576;13.568;2023-07-22T14:46:43;3.92;;;3.63;;
9409;SDS011;4744;52.576;13.568;2023-07-22T14:49:09;3.88;;;3.50;;
9409;SDS011;4744;52.576;13.568;2023-07-22T14:51:36;3.38;;;3.10;;
9409;SDS011;4744;52.576;13.568;2023-07-22T14:54:03;4.60;;;3.15;;
9409;SDS011;4744;52.576;13.568;2023-07-22T14:56:30;3.80;;;3.50;;
9409;SDS011;4744;52.576;13.568;2023-07-22T14:58:58;3.30;;;3.10;;
9409;SDS011;4744;52.576;13.568;2023-07-22T15:01:25;3.03;;;2.83;;
9409;SDS011;4744;52.576;13.568;2023-07-22T15:03:52;3.47;;;3.28;;
9409;SDS011;4744;52.576;13.568;2023-07-22T15:06:20;3.33;;;3.03;;
9409;SDS011;4744;52.576;13.568;2023-07-22T15:08:47;3.28;;;3.08;;